createdAt,value
2023-07-04T00:00:32.931Z,12.77
2023-07-04T00:03:04.476Z,12.90
2023-07-04T00:05:35.239Z,18.63
2023-07-04T00:08:05.283Z,17.42
2023-07-04T00:10:36.225Z,16.00
2023-07-04T00:13:06.652Z,15.82
2023-07-04T00:15:46.203Z,18.67
2023-07-04T00:18:23.666Z,17.77
2023-07-04T00:20:57.659Z,18.33
2023-07-04T00:23:39.644Z,18.83
2023-07-04T00:26:11.815Z,19.65
2023-07-04T00:28:43.954Z,18.75
2023-07-04T00:31:19.851Z,21.00
2023-07-04T00:33:50.093Z,22.15
2023-07-04T00:36:22.037Z,18.90
2023-07-04T00:38:59.835Z,22.02
2023-07-04T00:41:32.654Z,22.88
2023-07-04T00:44:16.393Z,21.02
2023-07-04T00:47:07.529Z,20.85
2023-07-04T00:49:47.567Z,21.55
2023-07-04T00:52:36.218Z,21.42
2023-07-04T00:55:12.561Z,20.80
2023-07-04T00:57:42.595Z,18.90
2023-07-04T01:00:20.768Z,19.38
2023-07-04T01:02:53.791Z,24.67
2023-07-04T01:05:53.652Z,21.00
2023-07-04T01:08:30.589Z,19.20
2023-07-04T01:11:05.089Z,22.38
2023-07-04T01:13:38.737Z,19.23
2023-07-04T01:16:15.016Z,19.02
2023-07-04T01:18:48.908Z,18.33
2023-07-04T01:21:22.183Z,19.08
2023-07-04T01:24:21.104Z,17.92
2023-07-04T01:26:52.314Z,18.25
2023-07-04T01:29:24.230Z,18.05
2023-07-04T01:31:54.765Z,18.02
2023-07-04T01:34:25.410Z,17.27
2023-07-04T01:36:56.300Z,17.58
2023-07-04T01:39:28.426Z,18.05
2023-07-04T01:41:58.997Z,15.73
2023-07-04T01:44:29.728Z,15.85
2023-07-04T01:47:00.109Z,16.00
2023-07-04T01:49:30.202Z,16.23
2023-07-04T01:52:01.490Z,15.50
2023-07-04T01:54:31.962Z,16.67
2023-07-04T01:57:01.757Z,16.88
2023-07-04T01:59:31.785Z,16.58
2023-07-04T02:02:01.452Z,17.48
2023-07-04T02:04:31.810Z,17.20
2023-07-04T02:07:02.388Z,16.92
2023-07-04T02:09:32.529Z,17.20
2023-07-04T02:12:02.790Z,15.88
2023-07-04T02:14:32.539Z,15.82
2023-07-04T02:17:02.603Z,15.50
2023-07-04T02:19:32.398Z,15.55
2023-07-04T02:22:02.360Z,15.93
2023-07-04T02:24:32.109Z,16.58
2023-07-04T02:27:02.401Z,15.93
2023-07-04T02:29:32.720Z,15.98
2023-07-04T02:32:02.590Z,16.15
2023-07-04T02:34:32.405Z,16.13
2023-07-04T02:37:02.612Z,16.80
2023-07-04T02:39:32.754Z,16.10
2023-07-04T02:42:02.881Z,15.75
2023-07-04T02:44:33.740Z,15.00
2023-07-04T02:47:07.504Z,15.50
2023-07-04T02:49:41.532Z,12.40
2023-07-04T02:52:13.967Z,13.07
2023-07-04T02:54:43.973Z,11.88
2023-07-04T02:57:16.508Z,12.77
2023-07-04T02:59:48.296Z,11.85
2023-07-04T03:02:18.771Z,12.75
2023-07-04T03:04:50.458Z,11.27
2023-07-04T03:07:20.873Z,12.48
2023-07-04T03:09:53.471Z,12.13
2023-07-04T03:12:27.329Z,12.63
2023-07-04T03:14:58.616Z,11.60
2023-07-04T03:17:29.288Z,19.75
2023-07-04T03:19:59.381Z,12.00
2023-07-04T03:22:29.293Z,13.13
2023-07-04T03:24:59.339Z,9.75
2023-07-04T03:27:29.868Z,9.68
2023-07-04T03:30:01.544Z,10.63
2023-07-04T03:32:32.136Z,11.38
2023-07-04T03:35:05.157Z,9.25
2023-07-04T03:37:37.223Z,8.32
2023-07-04T03:40:12.401Z,7.53
2023-07-04T03:42:43.861Z,7.75
2023-07-04T03:45:14.577Z,9.73
2023-07-04T03:47:45.985Z,9.98
2023-07-04T03:50:16.364Z,7.72
2023-07-04T03:52:47.512Z,7.03
2023-07-04T03:55:17.741Z,7.30
2023-07-04T03:57:47.584Z,7.15
2023-07-04T04:00:17.652Z,6.43
2023-07-04T04:03:07.172Z,6.45
2023-07-04T04:05:37.298Z,6.53
2023-07-04T04:08:07.471Z,8.13
2023-07-04T04:10:37.604Z,6.88
2023-07-04T04:13:07.429Z,7.53
2023-07-04T04:15:37.350Z,7.20
2023-07-04T04:18:07.260Z,6.82
2023-07-04T04:20:37.724Z,12.85
2023-07-04T04:23:08.069Z,12.07
2023-07-04T04:25:40.845Z,8.95
2023-07-04T04:28:12.581Z,7.20
2023-07-04T04:30:43.127Z,5.35
2023-07-04T04:33:13.000Z,5.47
2023-07-04T04:35:43.332Z,6.10
2023-07-04T04:38:15.044Z,7.63
2023-07-04T04:40:47.138Z,8.02
2023-07-04T04:43:16.983Z,5.60
2023-07-04T04:45:47.860Z,14.48
2023-07-04T04:48:21.712Z,6.22
2023-07-04T04:50:52.155Z,5.80
2023-07-04T04:53:22.023Z,6.88
2023-07-04T04:55:51.981Z,5.57
2023-07-04T04:58:22.466Z,5.30
2023-07-04T05:00:52.675Z,4.78
2023-07-04T05:03:22.677Z,5.43
2023-07-04T05:05:52.724Z,5.45
2023-07-04T05:08:22.500Z,8.43
2023-07-04T05:11:07.528Z,5.35
2023-07-04T05:13:39.242Z,5.50
2023-07-04T05:16:12.111Z,5.55
2023-07-04T05:18:43.003Z,4.65
2023-07-04T05:21:22.123Z,9.55
2023-07-04T05:23:55.161Z,5.03
2023-07-04T05:26:28.077Z,4.30
2023-07-04T05:29:00.321Z,5.30
2023-07-04T05:31:32.630Z,4.85
2023-07-04T05:34:02.601Z,4.60
2023-07-04T05:36:34.947Z,4.72
2023-07-04T05:39:08.740Z,4.70
2023-07-04T05:41:39.978Z,4.75
2023-07-04T05:44:12.037Z,5.22
2023-07-04T05:46:42.733Z,5.03
2023-07-04T05:49:12.903Z,4.80
2023-07-04T05:51:42.866Z,4.90
2023-07-04T05:54:12.844Z,4.35
2023-07-04T05:56:42.961Z,4.25
2023-07-04T05:59:13.225Z,4.63
2023-07-04T06:01:46.511Z,4.70
2023-07-04T06:04:17.194Z,4.55
2023-07-04T06:06:56.971Z,4.53
2023-07-04T06:09:27.153Z,4.30
2023-07-04T06:11:57.159Z,5.07
2023-07-04T06:14:29.350Z,5.47
2023-07-04T06:16:59.676Z,5.00
2023-07-04T06:19:29.497Z,4.88
2023-07-04T06:21:59.516Z,4.90
2023-07-04T06:24:29.296Z,4.82
2023-07-04T06:26:59.608Z,5.25
2023-07-04T06:29:29.422Z,4.35
2023-07-04T06:31:59.764Z,4.22
2023-07-04T06:34:29.502Z,4.30
2023-07-04T06:36:59.541Z,4.47
2023-07-04T06:39:29.279Z,4.00
2023-07-04T06:41:59.517Z,4.38
2023-07-04T06:44:36.326Z,4.78
2023-07-04T06:47:06.564Z,4.25
2023-07-04T06:49:36.641Z,5.10
2023-07-04T06:52:08.318Z,5.40
2023-07-04T06:54:38.395Z,4.45
2023-07-04T06:57:08.815Z,4.53
2023-07-04T06:59:38.704Z,4.85
2023-07-04T07:02:09.811Z,4.82
2023-07-04T07:04:40.296Z,4.70
2023-07-04T07:07:12.080Z,4.80
2023-07-04T07:09:44.161Z,11.68
2023-07-04T07:12:15.285Z,5.22
2023-07-04T07:14:45.384Z,5.47
2023-07-04T07:17:15.208Z,5.38
2023-07-04T07:19:46.334Z,5.13
2023-07-04T07:22:17.213Z,4.80
2023-07-04T07:24:47.141Z,5.43
2023-07-04T07:27:17.642Z,5.57
2023-07-04T07:29:51.091Z,4.88
2023-07-04T07:32:21.808Z,5.28
2023-07-04T07:34:52.826Z,5.68
2023-07-04T07:37:22.827Z,5.35
2023-07-04T07:39:53.925Z,5.18
2023-07-04T07:42:23.975Z,5.68
2023-07-04T07:44:53.830Z,5.43
2023-07-04T07:47:24.395Z,5.80
2023-07-04T07:49:54.159Z,5.57
2023-07-04T07:52:25.200Z,6.05
2023-07-04T07:54:55.189Z,5.60
2023-07-04T07:57:24.922Z,5.90
2023-07-04T07:59:55.775Z,5.57
2023-07-04T08:02:25.805Z,5.80
2023-07-04T08:04:55.655Z,6.25
2023-07-04T08:07:25.875Z,5.10
2023-07-04T08:09:55.680Z,6.15
2023-07-04T08:12:25.579Z,6.55
2023-07-04T08:14:55.380Z,5.90
2023-07-04T08:17:25.540Z,6.68
2023-07-04T08:19:56.187Z,6.10
2023-07-04T08:22:26.824Z,6.00
2023-07-04T08:24:56.787Z,6.10
2023-07-04T08:27:29.170Z,5.80
2023-07-04T08:29:59.277Z,5.82
2023-07-04T08:32:31.896Z,6.00
2023-07-04T08:35:03.108Z,6.28
2023-07-04T08:37:33.137Z,6.38
2023-07-04T08:40:03.225Z,6.13
2023-07-04T08:42:35.248Z,5.90
2023-07-04T08:45:08.018Z,5.68
2023-07-04T08:47:40.347Z,5.28
2023-07-04T08:50:20.996Z,5.50
2023-07-04T08:52:59.497Z,6.10
2023-07-04T08:55:29.974Z,5.50
2023-07-04T08:58:02.384Z,5.30
2023-07-04T09:00:47.922Z,22.90
2023-07-04T09:03:49.929Z,20.50
2023-07-04T09:06:38.524Z,5.68
2023-07-04T09:09:34.889Z,5.40
2023-07-04T09:12:07.633Z,5.82
2023-07-04T09:14:45.640Z,5.40
2023-07-04T09:17:41.625Z,5.15
2023-07-04T09:20:12.536Z,5.03
2023-07-04T09:22:42.272Z,5.22
2023-07-04T09:25:13.656Z,6.20
2023-07-04T09:27:43.436Z,6.13
2023-07-04T09:30:15.659Z,6.05
2023-07-04T09:32:46.091Z,6.38
2023-07-04T09:35:18.957Z,6.53
2023-07-04T09:38:08.998Z,6.93
2023-07-04T09:40:59.131Z,6.95
2023-07-04T09:43:32.705Z,7.07
2023-07-04T09:46:30.186Z,6.97
2023-07-04T09:49:39.073Z,7.05
2023-07-04T09:52:26.388Z,7.32
2023-07-04T09:55:27.601Z,6.53
2023-07-04T09:58:24.416Z,7.75
2023-07-04T10:01:18.365Z,10.93
2023-07-04T10:03:48.923Z,6.90
2023-07-04T10:06:35.023Z,7.85
2023-07-04T10:11:47.616Z,6.38
2023-07-04T10:14:19.169Z,7.57
2023-07-04T10:16:54.082Z,7.38
2023-07-04T10:19:25.927Z,8.50
2023-07-04T10:21:57.026Z,7.72
2023-07-04T10:24:28.530Z,6.68
2023-07-04T10:27:05.750Z,7.85
2023-07-04T10:29:48.869Z,8.43
2023-07-04T10:32:21.224Z,8.35
2023-07-04T10:34:52.757Z,8.93
2023-07-04T10:37:30.993Z,9.43
2023-07-04T10:40:07.506Z,7.80
2023-07-04T10:42:50.866Z,8.48
2023-07-04T10:45:22.560Z,9.23
2023-07-04T10:47:56.158Z,9.73
2023-07-04T10:50:32.341Z,11.15
2023-07-04T10:53:02.764Z,9.32
2023-07-04T10:55:45.600Z,9.52
2023-07-04T10:58:20.979Z,8.98
2023-07-04T11:01:05.779Z,9.40
2023-07-04T11:03:55.200Z,9.98
2023-07-04T11:06:35.370Z,9.43
2023-07-04T11:09:08.360Z,8.98
2023-07-04T11:11:40.623Z,9.45
2023-07-04T11:14:13.434Z,11.40
2023-07-04T11:16:47.572Z,10.18
2023-07-04T11:19:29.541Z,11.20
2023-07-04T11:22:16.880Z,11.60
2023-07-04T11:24:57.184Z,12.50
2023-07-04T11:27:33.597Z,11.52
2023-07-04T11:30:08.666Z,10.52
2023-07-04T11:33:00.057Z,10.43
2023-07-04T11:35:35.165Z,9.65
2023-07-04T11:38:23.304Z,9.52
2023-07-04T11:40:58.769Z,9.75
2023-07-04T11:43:32.087Z,10.93
2023-07-04T11:46:03.777Z,10.20
2023-07-04T11:48:37.758Z,10.40
2023-07-04T11:51:13.294Z,9.93
2023-07-04T11:53:50.064Z,11.15
2023-07-04T11:56:40.950Z,10.52
2023-07-04T11:59:40.464Z,9.68
2023-07-04T12:02:17.484Z,8.73
2023-07-04T12:04:49.920Z,10.68
2023-07-04T12:07:41.456Z,8.85
2023-07-04T12:10:22.565Z,7.10
2023-07-04T12:13:05.426Z,9.95
2023-07-04T12:15:38.564Z,7.50
2023-07-04T12:18:26.538Z,7.57
2023-07-04T12:20:58.901Z,6.28
2023-07-04T12:23:29.441Z,6.68
2023-07-04T12:26:02.295Z,7.03
2023-07-04T12:28:33.809Z,7.63
2023-07-04T12:33:48.166Z,9.35
2023-07-04T12:36:22.199Z,9.90
2023-07-04T12:38:56.850Z,10.20
2023-07-04T12:41:31.260Z,9.13
2023-07-04T12:51:50.216Z,9.75
2023-07-04T12:54:20.779Z,7.93
2023-07-04T12:56:51.637Z,7.60
2023-07-04T12:59:42.247Z,7.47
2023-07-04T13:02:27.177Z,8.73
2023-07-04T13:04:59.668Z,7.15
2023-07-04T13:07:29.961Z,7.45
2023-07-04T13:10:01.852Z,7.40
2023-07-04T13:12:34.728Z,7.28
2023-07-04T13:15:14.277Z,7.30
2023-07-04T13:18:07.519Z,6.82
2023-07-04T13:20:42.973Z,7.20
2023-07-04T13:26:00.987Z,8.30
2023-07-04T13:34:21.365Z,6.97
2023-07-04T13:37:04.661Z,8.75
2023-07-04T13:39:49.931Z,6.95
2023-07-04T13:42:22.744Z,6.63
2023-07-04T13:47:25.792Z,6.47
2023-07-04T13:49:55.627Z,5.80
2023-07-04T13:52:25.894Z,5.72
2023-07-04T13:54:55.681Z,7.05
2023-07-04T13:57:25.782Z,7.47
2023-07-04T13:59:55.619Z,7.88
2023-07-04T14:05:40.055Z,6.32
2023-07-04T14:07:49.530Z,6.28
2023-07-04T14:10:33.791Z,5.95
2023-07-04T14:13:05.328Z,7.93
2023-07-04T14:20:46.237Z,7.72
2023-07-04T14:23:19.057Z,7.97
2023-07-04T14:25:49.144Z,7.47
2023-07-04T14:28:19.526Z,6.88
2023-07-04T14:30:49.857Z,6.82
2023-07-04T14:33:20.402Z,7.72
2023-07-04T14:35:51.664Z,8.45
2023-07-04T14:38:22.272Z,8.55
2023-07-04T14:43:25.062Z,7.72
2023-07-04T14:46:02.600Z,8.32
2023-07-04T14:48:34.550Z,8.57
2023-07-04T14:51:13.203Z,8.60
2023-07-04T14:53:45.962Z,8.95
2023-07-04T14:56:18.102Z,10.40
2023-07-04T14:58:48.415Z,10.35
2023-07-04T15:01:22.556Z,11.00
2023-07-04T15:03:52.926Z,11.95
2023-07-04T15:06:24.473Z,10.23
2023-07-04T15:08:55.360Z,10.35
2023-07-04T15:11:26.619Z,16.42
2023-07-04T15:13:56.791Z,17.73
2023-07-04T15:16:26.714Z,11.80
2023-07-04T15:18:56.879Z,12.02
2023-07-04T15:21:27.254Z,10.48
2023-07-04T15:23:58.384Z,10.18
2023-07-04T15:26:30.012Z,10.50
2023-07-04T15:29:00.432Z,10.40
2023-07-04T15:31:30.652Z,10.50
2023-07-04T15:34:00.923Z,10.50
2023-07-04T15:36:30.848Z,8.77
2023-07-04T15:39:01.438Z,10.35
2023-07-04T15:41:31.891Z,10.70
2023-07-04T15:44:02.434Z,11.68
2023-07-04T15:46:32.279Z,11.02
2023-07-04T15:49:02.271Z,10.45
2023-07-04T15:51:32.083Z,11.07
2023-07-04T15:54:02.417Z,11.20
2023-07-04T15:56:32.245Z,10.32
2023-07-04T15:59:02.140Z,9.95
2023-07-04T16:01:31.866Z,10.45
2023-07-04T16:04:03.017Z,10.82
2023-07-04T16:06:33.089Z,10.93
2023-07-04T16:09:03.224Z,10.30
2023-07-04T16:11:33.606Z,10.02
2023-07-04T16:14:03.563Z,19.33
2023-07-04T16:16:33.557Z,18.45
2023-07-04T16:19:03.455Z,10.55
2023-07-04T16:21:33.371Z,10.40
2023-07-04T16:24:05.453Z,10.02
2023-07-04T16:26:36.091Z,9.75
2023-07-04T16:29:05.867Z,10.65
2023-07-04T16:31:36.082Z,10.95
2023-07-04T16:34:05.899Z,11.35
2023-07-04T16:36:36.723Z,11.10
2023-07-04T16:39:07.181Z,11.57
2023-07-04T16:41:36.933Z,11.35
2023-07-04T16:44:06.863Z,10.98
2023-07-04T16:46:36.635Z,11.73
2023-07-04T16:49:07.476Z,10.88
2023-07-04T16:51:37.418Z,11.02
2023-07-04T16:54:07.893Z,11.95
2023-07-04T16:56:37.715Z,12.38
2023-07-04T16:59:07.685Z,12.77
2023-07-04T17:01:37.470Z,12.20
2023-07-04T17:04:07.877Z,12.00
2023-07-04T17:06:37.758Z,13.38
2023-07-04T17:09:07.827Z,14.10
2023-07-04T17:11:37.753Z,14.95
2023-07-04T17:14:07.930Z,14.77
2023-07-04T17:16:37.784Z,17.23
2023-07-04T17:19:07.810Z,17.60
2023-07-04T17:21:37.568Z,18.00
2023-07-04T17:24:07.822Z,16.45
2023-07-04T17:26:37.733Z,15.32
2023-07-04T17:29:08.494Z,14.98
2023-07-04T17:31:38.412Z,14.05
2023-07-04T17:34:08.418Z,14.10
2023-07-04T17:36:40.095Z,14.10
2023-07-04T17:39:10.823Z,14.60
2023-07-04T17:41:40.901Z,16.58
2023-07-04T17:44:10.601Z,17.50
2023-07-04T17:46:40.607Z,16.55
2023-07-04T17:49:11.131Z,17.75
2023-07-04T17:51:41.273Z,18.08
2023-07-04T17:54:11.577Z,17.05
2023-07-04T17:56:41.551Z,18.10
2023-07-04T17:59:12.742Z,27.73
2023-07-04T18:01:43.018Z,15.80
2023-07-04T18:04:13.022Z,16.00
2023-07-04T18:06:44.569Z,16.52
2023-07-04T18:09:14.670Z,16.10
2023-07-04T18:11:45.087Z,15.57
2023-07-04T18:14:16.499Z,15.50
2023-07-04T18:16:46.503Z,15.93
2023-07-04T18:19:17.013Z,16.35
2023-07-04T18:21:47.267Z,15.30
2023-07-04T18:24:16.968Z,14.85
2023-07-04T18:26:46.898Z,15.90
2023-07-04T18:29:16.662Z,15.18
2023-07-04T18:31:46.706Z,15.70
2023-07-04T18:34:17.220Z,15.70
2023-07-04T18:36:47.707Z,14.75
2023-07-04T18:39:18.164Z,15.65
2023-07-04T18:41:47.875Z,15.32
2023-07-04T18:44:17.815Z,15.88
2023-07-04T18:46:48.619Z,14.90
2023-07-04T18:49:19.226Z,15.27
2023-07-04T18:51:48.936Z,15.85
2023-07-04T18:54:20.344Z,15.05
2023-07-04T18:56:50.782Z,15.90
2023-07-04T18:59:21.018Z,15.23
2023-07-04T19:01:53.078Z,14.55
2023-07-04T19:04:23.657Z,14.52
2023-07-04T19:06:53.684Z,15.02
2023-07-04T19:09:23.413Z,14.25
2023-07-04T19:11:53.823Z,15.07
2023-07-04T19:14:25.012Z,15.00
2023-07-04T19:16:59.200Z,15.30
2023-07-04T19:19:33.970Z,15.90
2023-07-04T19:22:06.962Z,16.30
2023-07-04T19:24:39.793Z,14.95
2023-07-04T19:27:14.374Z,14.55
2023-07-04T19:29:45.664Z,15.05
2023-07-04T19:32:17.252Z,14.73
2023-07-04T19:34:47.750Z,17.92
2023-07-04T19:37:19.642Z,17.23
2023-07-04T19:39:50.226Z,17.10
2023-07-04T19:42:21.004Z,17.92
2023-07-04T19:44:51.371Z,19.10
2023-07-04T19:47:23.322Z,18.45
2023-07-04T19:49:53.497Z,18.38
2023-07-04T19:52:23.552Z,17.70
2023-07-04T19:54:53.744Z,15.80
2023-07-04T19:57:23.537Z,16.98
2023-07-04T19:59:53.723Z,16.45
2023-07-04T20:02:24.062Z,15.52
2023-07-04T20:04:56.109Z,16.13
2023-07-04T20:07:26.119Z,17.08
2023-07-04T20:09:55.800Z,19.10
2023-07-04T20:12:26.041Z,19.48
2023-07-04T20:14:56.225Z,16.33
2023-07-04T20:17:26.250Z,14.32
2023-07-04T20:19:56.132Z,14.50
2023-07-04T20:22:26.321Z,16.10
2023-07-04T20:24:56.125Z,17.00
2023-07-04T20:27:26.229Z,22.27
2023-07-04T20:29:56.038Z,21.73
2023-07-04T20:32:26.070Z,18.92
2023-07-04T20:34:55.925Z,17.55
2023-07-04T20:37:25.908Z,15.68
2023-07-04T20:39:56.015Z,13.98
2023-07-04T20:42:26.044Z,15.13
2023-07-04T20:44:55.848Z,14.45
2023-07-04T20:47:25.930Z,15.27
2023-07-04T20:49:57.227Z,14.65
2023-07-04T20:52:27.403Z,15.25
2023-07-04T20:54:57.472Z,15.55
2023-07-04T20:57:27.992Z,15.68
2023-07-04T21:00:02.756Z,14.00
2023-07-04T21:02:33.238Z,15.27
2023-07-04T21:05:03.085Z,14.73
2023-07-04T21:07:33.210Z,15.40
2023-07-04T21:10:03.072Z,15.00
2023-07-04T21:12:33.031Z,14.30
2023-07-04T21:15:03.120Z,14.40
2023-07-04T21:17:33.416Z,15.15
2023-07-04T21:20:03.496Z,14.18
2023-07-04T21:22:33.893Z,15.15
2023-07-04T21:25:04.382Z,15.27
2023-07-04T21:27:35.718Z,14.98
2023-07-04T21:30:07.084Z,14.95
2023-07-04T21:32:37.327Z,14.98
2023-07-04T21:35:07.569Z,15.43
2023-07-04T21:37:37.637Z,14.32
2023-07-04T21:40:09.238Z,15.35
2023-07-04T21:42:39.335Z,17.08
2023-07-04T21:45:09.701Z,17.23
2023-07-04T21:47:39.775Z,15.77
2023-07-04T21:50:11.210Z,16.75
2023-07-04T21:52:41.412Z,17.63
2023-07-04T21:55:11.626Z,16.13
2023-07-04T21:57:41.588Z,18.02
2023-07-04T22:00:12.107Z,16.85
2023-07-04T22:02:42.274Z,17.17
2023-07-04T22:05:11.983Z,16.55
2023-07-04T22:07:42.032Z,16.05
2023-07-04T22:10:12.360Z,16.65
2023-07-04T22:12:42.453Z,16.83
2023-07-04T22:15:12.891Z,14.85
2023-07-04T22:17:43.056Z,15.65
2023-07-04T22:20:13.679Z,16.23
2023-07-04T22:22:43.782Z,16.05
2023-07-04T22:25:13.582Z,15.18
2023-07-04T22:27:43.697Z,15.18
2023-07-04T22:30:13.722Z,15.63
2023-07-04T22:32:44.138Z,16.60
2023-07-04T22:35:13.874Z,15.57
2023-07-04T22:37:44.023Z,15.18
2023-07-04T22:40:14.765Z,17.05
2023-07-04T22:42:45.178Z,17.00
2023-07-04T22:45:15.046Z,16.77
2023-07-04T22:47:45.237Z,16.23
2023-07-04T22:50:15.166Z,16.02
2023-07-04T22:52:45.108Z,16.33
2023-07-04T22:55:15.490Z,16.10
2023-07-04T22:57:45.708Z,16.05
2023-07-04T23:00:15.910Z,15.30
2023-07-04T23:02:46.335Z,16.20
2023-07-04T23:05:16.644Z,20.13
2023-07-04T23:07:46.633Z,23.50
2023-07-04T23:10:16.441Z,23.52
2023-07-04T23:12:46.601Z,16.42
2023-07-04T23:15:16.510Z,16.35
2023-07-04T23:17:46.614Z,16.83
2023-07-04T23:20:16.933Z,16.65
2023-07-04T23:22:47.611Z,16.58
2023-07-04T23:25:17.502Z,17.83
2023-07-04T23:27:49.941Z,18.02
2023-07-04T23:30:20.247Z,38.88
2023-07-04T23:32:50.215Z,38.50
2023-07-04T23:35:20.395Z,31.00
2023-07-04T23:37:50.259Z,23.02
2023-07-04T23:40:20.561Z,20.83
2023-07-04T23:42:51.034Z,28.27
2023-07-04T23:45:21.088Z,20.95
2023-07-04T23:47:51.117Z,21.33
2023-07-04T23:50:21.177Z,19.67
2023-07-04T23:52:50.950Z,19.40
2023-07-04T23:55:22.349Z,17.70
2023-07-04T23:57:52.411Z,17.17
